createdAt,value
2018-05-12T00:04:19.797Z,12.50
2018-05-12T00:09:23.508Z,12.20
2018-05-12T00:14:27.336Z,11.90
2018-05-12T00:19:31.482Z,11.80
2018-05-12T00:24:34.732Z,11.80
2018-05-12T00:29:38.036Z,11.80
2018-05-12T00:34:41.368Z,11.60
2018-05-12T00:39:45.098Z,11.70
2018-05-12T00:44:51.889Z,11.60
2018-05-12T00:49:56.511Z,11.50
2018-05-12T00:54:59.744Z,11.50
2018-05-12T01:00:02.979Z,11.40
2018-05-12T01:05:06.396Z,11.40
2018-05-12T01:10:09.641Z,11.50
2018-05-12T01:15:12.886Z,11.40
2018-05-12T01:20:20.733Z,11.40
2018-05-12T01:25:23.959Z,11.40
2018-05-12T01:30:27.212Z,11.10
2018-05-12T01:35:30.443Z,11.10
2018-05-12T01:40:33.808Z,11.10
2018-05-12T01:45:37.200Z,11.30
2018-05-12T01:50:40.837Z,11.20
2018-05-12T01:55:44.100Z,11.20
2018-05-12T02:00:48.528Z,11.00
2018-05-12T02:05:51.807Z,10.90
2018-05-12T02:10:55.044Z,10.90
2018-05-12T02:15:58.390Z,11.00
2018-05-12T02:21:02.947Z,10.70
2018-05-12T02:26:06.217Z,10.70
2018-05-12T02:31:09.587Z,10.60
2018-05-12T02:36:12.810Z,10.60
2018-05-12T02:41:22.504Z,10.40
2018-05-12T02:46:26.177Z,10.50
2018-05-12T02:51:32.048Z,10.50
2018-05-12T02:56:35.301Z,10.40
2018-05-12T03:01:40.104Z,10.40
2018-05-12T03:06:43.516Z,10.40
2018-05-12T03:11:46.839Z,10.60
2018-05-12T03:16:50.072Z,10.60
2018-05-12T03:21:53.366Z,10.60
2018-05-12T03:26:57.009Z,10.50
2018-05-12T03:32:00.290Z,10.50
2018-05-12T03:37:03.931Z,10.00
2018-05-12T03:42:07.197Z,10.00
2018-05-12T03:47:10.836Z,10.00
2018-05-12T03:52:14.056Z,10.00
2018-05-12T03:57:17.321Z,10.10
2018-05-12T04:02:20.543Z,10.20
2018-05-12T04:07:36.136Z,10.20
2018-05-12T04:12:41.570Z,10.20
2018-05-12T04:17:44.803Z,10.20
2018-05-12T04:22:48.436Z,10.50
2018-05-12T04:27:51.685Z,10.50
2018-05-12T04:32:54.956Z,10.50
2018-05-12T04:37:58.235Z,10.60
2018-05-12T04:43:01.856Z,11.20
2018-05-12T04:48:05.479Z,11.40
2018-05-12T04:53:09.107Z,11.40
2018-05-12T04:58:12.500Z,11.70
2018-05-12T05:03:15.730Z,12.00
2018-05-12T05:08:19.038Z,12.20
2018-05-12T05:13:22.224Z,12.40
2018-05-12T05:18:25.580Z,12.50
2018-05-12T05:23:28.819Z,12.60
2018-05-12T05:28:32.461Z,12.80
2018-05-12T05:33:35.682Z,12.80
2018-05-12T05:38:38.915Z,13.10
2018-05-12T05:43:42.190Z,13.30
2018-05-12T05:48:45.483Z,13.50
2018-05-12T05:53:48.731Z,13.80
2018-05-12T05:58:52.042Z,13.90
2018-05-12T06:03:55.491Z,13.90
2018-05-12T06:08:59.206Z,14.20
2018-05-12T06:14:02.910Z,14.30
2018-05-12T06:19:07.226Z,14.40
2018-05-12T06:24:10.461Z,14.40
2018-05-12T06:29:14.484Z,14.90
2018-05-12T06:34:18.132Z,15.10
2018-05-12T06:39:21.822Z,15.10
2018-05-12T06:44:25.086Z,15.00
2018-05-12T06:49:28.363Z,15.30
2018-05-12T06:54:31.592Z,15.30
2018-05-12T06:59:34.855Z,15.20
2018-05-12T07:04:38.087Z,15.20
2018-05-12T07:09:41.328Z,15.70
2018-05-12T07:14:44.574Z,15.80
2018-05-12T07:19:47.810Z,15.90
2018-05-12T07:24:51.073Z,15.90
2018-05-12T07:29:54.715Z,16.20
2018-05-12T07:34:57.965Z,16.20
2018-05-12T07:40:01.215Z,16.30
2018-05-12T07:45:04.671Z,16.60
2018-05-12T07:50:07.887Z,16.90
2018-05-12T07:55:11.751Z,16.80
2018-05-12T08:00:14.994Z,16.80
2018-05-12T08:05:18.545Z,17.30
2018-05-12T08:10:22.754Z,17.70
2018-05-12T08:15:25.993Z,17.70
2018-05-12T08:20:29.226Z,18.20
2018-05-12T08:25:32.493Z,18.50
2018-05-12T08:30:36.133Z,18.40
2018-05-12T08:35:39.384Z,18.40
2018-05-12T08:40:42.617Z,18.30
2018-05-12T08:45:46.055Z,18.50
2018-05-12T08:50:49.289Z,18.70
2018-05-12T08:55:52.827Z,19.00
2018-05-12T09:00:56.067Z,19.00
2018-05-12T09:05:59.749Z,19.30
2018-05-12T09:11:03.184Z,19.30
2018-05-12T09:16:06.833Z,20.10
2018-05-12T09:21:10.072Z,20.10
2018-05-12T09:26:13.306Z,20.00
2018-05-12T09:31:16.539Z,20.30
2018-05-12T09:36:19.769Z,20.40
2018-05-12T09:41:23.007Z,20.60
2018-05-12T09:46:26.290Z,20.70
2018-05-12T09:51:29.878Z,20.90
2018-05-12T09:56:33.136Z,20.40
2018-05-12T10:01:36.898Z,20.90
2018-05-12T10:06:41.722Z,21.30
2018-05-12T10:11:45.192Z,21.00
2018-05-12T10:16:48.644Z,21.20
2018-05-12T10:21:52.058Z,21.80
2018-05-12T10:26:55.361Z,21.80
2018-05-12T10:31:58.986Z,22.40
2018-05-12T10:37:02.785Z,22.60
2018-05-12T10:42:06.386Z,22.60
2018-05-12T10:47:09.631Z,23.10
2018-05-12T10:52:12.859Z,23.50
2018-05-12T10:57:17.527Z,23.80
2018-05-12T11:02:20.742Z,24.20
2018-05-12T11:07:23.969Z,24.50
2018-05-12T11:12:27.694Z,24.60
2018-05-12T11:17:31.398Z,25.40
2018-05-12T11:22:35.196Z,25.40
2018-05-12T11:27:38.422Z,25.30
2018-05-12T11:32:42.151Z,25.80
2018-05-12T11:37:45.945Z,25.80
2018-05-12T11:42:49.961Z,25.80
2018-05-12T11:47:54.255Z,26.20
2018-05-12T11:52:57.507Z,27.80
2018-05-12T11:58:01.144Z,29.20
2018-05-12T12:03:04.774Z,30.10
2018-05-12T12:08:08.017Z,30.10
2018-05-12T12:13:11.241Z,31.30
2018-05-12T12:18:14.464Z,31.60
2018-05-12T12:23:18.036Z,32.00
2018-05-12T12:28:21.247Z,32.90
2018-05-12T12:33:24.510Z,33.20
2018-05-12T12:38:27.907Z,33.80
2018-05-12T12:43:31.879Z,32.00
2018-05-12T12:48:35.100Z,32.00
2018-05-12T12:53:38.461Z,33.50
2018-05-12T12:58:42.108Z,34.70
2018-05-12T13:03:45.324Z,34.70
2018-05-12T13:08:49.801Z,35.20
2018-05-12T13:13:53.012Z,34.30
2018-05-12T13:18:57.013Z,35.50
2018-05-12T13:24:00.637Z,35.50
2018-05-12T13:29:03.888Z,35.50
2018-05-12T13:34:07.162Z,36.30
2018-05-12T13:39:10.783Z,34.50
2018-05-12T13:44:14.403Z,32.90
2018-05-12T13:49:18.010Z,31.40
2018-05-12T13:54:21.616Z,30.20
2018-05-12T13:59:24.860Z,30.20
2018-05-12T14:04:28.087Z,30.10
2018-05-12T14:09:31.317Z,31.00
2018-05-12T14:14:34.844Z,32.60
2018-05-12T14:19:38.100Z,32.70
2018-05-12T14:24:41.332Z,33.30
2018-05-12T14:29:44.552Z,34.00
2018-05-12T14:34:47.768Z,34.80
2018-05-12T14:39:50.982Z,34.60
2018-05-12T14:44:54.639Z,34.70
2018-05-12T14:49:58.075Z,34.70
2018-05-12T14:55:01.407Z,36.20
2018-05-12T15:00:04.716Z,36.20
2018-05-12T15:05:10.320Z,35.70
2018-05-12T15:10:14.327Z,37.00
2018-05-12T15:15:18.052Z,36.40
2018-05-12T15:20:21.277Z,36.40
2018-05-12T15:25:24.727Z,32.80
2018-05-12T15:30:27.941Z,30.50
2018-05-12T15:35:31.177Z,29.40
2018-05-12T15:40:34.457Z,28.70
2018-05-12T15:45:38.092Z,29.20
2018-05-12T15:50:41.376Z,29.20
2018-05-12T15:55:45.011Z,32.80
2018-05-12T16:00:48.256Z,32.80
2018-05-12T16:05:52.303Z,34.50
2018-05-12T16:10:55.843Z,33.30
2018-05-12T16:15:59.177Z,31.00
2018-05-12T16:21:02.454Z,29.60
2018-05-12T16:26:06.067Z,27.80
2018-05-12T16:31:09.855Z,27.20
2018-05-12T16:36:13.074Z,27.20
2018-05-12T16:41:16.295Z,26.90
2018-05-12T16:46:19.910Z,26.80
2018-05-12T16:51:24.236Z,26.30
2018-05-12T16:56:27.452Z,26.30
2018-05-12T17:01:31.157Z,27.40
2018-05-12T17:06:34.472Z,27.50
2018-05-12T17:11:37.637Z,29.40
2018-05-12T17:16:41.075Z,29.70
2018-05-12T17:21:44.801Z,29.30
2018-05-12T17:26:48.453Z,27.50
2018-05-12T17:31:51.981Z,27.50
2018-05-12T17:36:55.207Z,26.80
2018-05-12T17:41:58.448Z,26.20
2018-05-12T17:47:02.071Z,25.20
2018-05-12T17:52:05.689Z,24.60
2018-05-12T17:57:08.925Z,24.60
2018-05-12T18:02:12.177Z,24.30
2018-05-12T18:07:15.803Z,23.70
2018-05-12T18:12:19.421Z,23.40
2018-05-12T18:17:23.821Z,23.00
2018-05-12T18:22:27.016Z,23.00
2018-05-12T18:27:30.263Z,22.60
2018-05-12T18:32:33.880Z,22.20
2018-05-12T18:37:37.495Z,22.10
2018-05-12T18:42:41.124Z,21.80
2018-05-12T18:47:44.339Z,21.80
2018-05-12T18:52:47.555Z,21.60
2018-05-12T18:57:50.784Z,21.30
2018-05-12T19:02:55.046Z,21.00
2018-05-12T19:07:58.292Z,21.00
2018-05-12T19:13:01.964Z,21.00
2018-05-12T19:18:05.597Z,20.90
2018-05-12T19:23:09.223Z,20.80
2018-05-12T19:28:12.460Z,20.80
2018-05-12T19:33:15.680Z,20.70
2018-05-12T19:38:18.912Z,20.70
2018-05-12T19:43:22.534Z,20.90
2018-05-12T19:48:26.143Z,21.00
2018-05-12T19:53:29.361Z,21.00
2018-05-12T19:58:33.064Z,20.90
2018-05-12T20:03:36.307Z,20.90
2018-05-12T20:08:39.535Z,20.80
2018-05-12T20:13:42.761Z,20.70
2018-05-12T20:18:45.994Z,20.60
2018-05-12T20:23:49.616Z,20.50
2018-05-12T20:28:53.230Z,20.40
2018-05-12T20:33:56.838Z,20.30
2018-05-12T20:39:00.471Z,20.20
2018-05-12T20:44:03.727Z,20.20
2018-05-12T20:49:06.968Z,20.10
2018-05-12T20:54:10.580Z,19.90
2018-05-12T20:59:14.215Z,19.80
2018-05-12T21:04:17.721Z,19.80
2018-05-12T21:09:21.945Z,19.70
2018-05-12T21:14:25.696Z,19.60
2018-05-12T21:19:28.924Z,19.70
2018-05-12T21:24:32.259Z,19.70
2018-05-12T21:29:35.565Z,19.60
2018-05-12T21:34:38.774Z,19.40
2018-05-12T21:39:42.088Z,19.10
2018-05-12T21:44:45.900Z,18.50
2018-05-12T21:49:49.302Z,18.50
2018-05-12T21:54:52.557Z,18.50
2018-05-12T21:59:55.839Z,18.40
2018-05-12T22:04:59.446Z,18.50
2018-05-12T22:10:03.077Z,18.40
2018-05-12T22:15:07.031Z,18.30
2018-05-12T22:20:10.382Z,18.00
2018-05-12T22:25:13.602Z,17.60
2018-05-12T22:30:17.212Z,17.20
2018-05-12T22:35:20.906Z,17.20
2018-05-12T22:40:24.971Z,17.20
2018-05-12T22:45:28.189Z,17.40
2018-05-12T22:50:32.075Z,17.50
2018-05-12T22:55:35.333Z,17.40
2018-05-12T23:00:38.559Z,17.40
2018-05-12T23:05:41.788Z,17.60
2018-05-12T23:10:45.107Z,17.70
2018-05-12T23:15:48.739Z,17.50
2018-05-12T23:20:51.981Z,17.50
2018-05-12T23:25:56.184Z,17.30
2018-05-12T23:30:59.527Z,17.10
2018-05-12T23:36:03.434Z,17.30
2018-05-12T23:41:06.669Z,17.40
2018-05-12T23:46:11.003Z,17.50
2018-05-12T23:51:14.517Z,17.50
2018-05-12T23:56:17.707Z,17.40
